sensor_id;sensor_type;location;lat;lon;timestamp;temperature;humidity
45283;DHT22;31023;44.994;1.796;2023-05-07T00:01:38;14.40;99.90
45283;DHT22;31023;44.994;1.796;2023-05-07T00:04:04;14.50;99.90
45283;DHT22;31023;44.994;1.796;2023-05-07T00:06:30;14.60;99.90
45283;DHT22;31023;44.994;1.796;2023-05-07T00:08:57;14.60;99.90
45283;DHT22;31023;44.994;1.796;2023-05-07T00:11:23;14.70;99.90
45283;DHT22;31023;44.994;1.796;2023-05-07T00:13:49;14.40;99.90
45283;DHT22;31023;44.994;1.796;2023-05-07T00:16:14;14.40;99.90
45283;DHT22;31023;44.994;1.796;2023-05-07T00:18:40;14.70;99.90
45283;DHT22;31023;44.994;1.796;2023-05-07T00:21:06;14.80;99.90
45283;DHT22;31023;44.994;1.796;2023-05-07T00:23:31;14.80;99.90
45283;DHT22;31023;44.994;1.796;2023-05-07T00:25:57;14.60;99.90
45283;DHT22;31023;44.994;1.796;2023-05-07T00:28:23;14.30;99.90
45283;DHT22;31023;44.994;1.796;2023-05-07T00:30:48;14.10;99.90
45283;DHT22;31023;44.994;1.796;2023-05-07T00:33:14;14.30;99.90
45283;DHT22;31023;44.994;1.796;2023-05-07T00:35:40;14.40;99.90
45283;DHT22;31023;44.994;1.796;2023-05-07T00:38:06;14.20;99.90
45283;DHT22;31023;44.994;1.796;2023-05-07T00:40:31;14.20;99.90
45283;DHT22;31023;44.994;1.796;2023-05-07T00:42:57;14.10;99.90
45283;DHT22;31023;44.994;1.796;2023-05-07T00:45:26;14.30;99.90
45283;DHT22;31023;44.994;1.796;2023-05-07T00:47:55;14.40;99.90
45283;DHT22;31023;44.994;1.796;2023-05-07T00:50:21;14.20;99.90
45283;DHT22;31023;44.994;1.796;2023-05-07T00:52:47;14.20;99.90
45283;DHT22;31023;44.994;1.796;2023-05-07T00:55:13;14.50;99.90
45283;DHT22;31023;44.994;1.796;2023-05-07T00:57:41;14.40;99.90
45283;DHT22;31023;44.994;1.796;2023-05-07T01:00:08;14.50;99.90
45283;DHT22;31023;44.994;1.796;2023-05-07T01:02:35;14.60;99.90
45283;DHT22;31023;44.994;1.796;2023-05-07T01:05:03;14.40;99.90
45283;DHT22;31023;44.994;1.796;2023-05-07T01:07:32;14.50;99.90
45283;DHT22;31023;44.994;1.796;2023-05-07T01:09:58;14.60;99.90
45283;DHT22;31023;44.994;1.796;2023-05-07T01:12:24;14.60;99.90
45283;DHT22;31023;44.994;1.796;2023-05-07T01:14:50;14.40;99.90
45283;DHT22;31023;44.994;1.796;2023-05-07T01:17:17;14.30;99.90
45283;DHT22;31023;44.994;1.796;2023-05-07T01:19:43;14.40;99.90
45283;DHT22;31023;44.994;1.796;2023-05-07T01:22:10;14.20;99.90
45283;DHT22;31023;44.994;1.796;2023-05-07T01:24:40;14.40;99.90
45283;DHT22;31023;44.994;1.796;2023-05-07T01:27:06;14.40;99.90
45283;DHT22;31023;44.994;1.796;2023-05-07T01:29:32;14.30;99.90
45283;DHT22;31023;44.994;1.796;2023-05-07T01:32:00;14.30;99.90
45283;DHT22;31023;44.994;1.796;2023-05-07T01:34:28;14.30;99.90
45283;DHT22;31023;44.994;1.796;2023-05-07T01:36:56;14.30;99.90
45283;DHT22;31023;44.994;1.796;2023-05-07T01:39:25;14.40;99.90
45283;DHT22;31023;44.994;1.796;2023-05-07T01:41:56;14.30;99.90
45283;DHT22;31023;44.994;1.796;2023-05-07T01:44:22;14.20;99.90
45283;DHT22;31023;44.994;1.796;2023-05-07T01:46:48;14.20;99.90
45283;DHT22;31023;44.994;1.796;2023-05-07T01:49:15;14.40;99.90
45283;DHT22;31023;44.994;1.796;2023-05-07T01:51:41;14.50;99.90
45283;DHT22;31023;44.994;1.796;2023-05-07T01:54:07;14.70;99.90
45283;DHT22;31023;44.994;1.796;2023-05-07T01:56:34;14.60;99.90
45283;DHT22;31023;44.994;1.796;2023-05-07T01:59:02;14.70;99.90
45283;DHT22;31023;44.994;1.796;2023-05-07T02:01:27;14.80;99.90
45283;DHT22;31023;44.994;1.796;2023-05-07T02:03:53;14.90;99.90
45283;DHT22;31023;44.994;1.796;2023-05-07T02:06:19;14.70;99.90
45283;DHT22;31023;44.994;1.796;2023-05-07T02:08:45;14.70;99.90
45283;DHT22;31023;44.994;1.796;2023-05-07T02:11:11;14.60;99.90
45283;DHT22;31023;44.994;1.796;2023-05-07T02:13:37;14.60;99.90
45283;DHT22;31023;44.994;1.796;2023-05-07T02:16:03;14.70;99.90
45283;DHT22;31023;44.994;1.796;2023-05-07T02:18:29;14.60;99.90
45283;DHT22;31023;44.994;1.796;2023-05-07T02:20:55;14.70;99.90
45283;DHT22;31023;44.994;1.796;2023-05-07T02:23:20;14.70;99.90
45283;DHT22;31023;44.994;1.796;2023-05-07T02:25:46;14.80;99.90
45283;DHT22;31023;44.994;1.796;2023-05-07T02:28:12;14.60;99.90
45283;DHT22;31023;44.994;1.796;2023-05-07T02:30:38;14.70;99.90
45283;DHT22;31023;44.994;1.796;2023-05-07T02:33:05;14.70;99.90
45283;DHT22;31023;44.994;1.796;2023-05-07T02:35:31;14.80;99.90
45283;DHT22;31023;44.994;1.796;2023-05-07T02:37:57;14.80;99.90
45283;DHT22;31023;44.994;1.796;2023-05-07T02:40:23;14.60;99.90
45283;DHT22;31023;44.994;1.796;2023-05-07T02:42:48;14.50;99.90
45283;DHT22;31023;44.994;1.796;2023-05-07T02:45:14;14.70;99.90
45283;DHT22;31023;44.994;1.796;2023-05-07T02:47:40;14.70;99.90
45283;DHT22;31023;44.994;1.796;2023-05-07T02:50:06;14.50;99.90
45283;DHT22;31023;44.994;1.796;2023-05-07T02:52:32;14.50;99.90
45283;DHT22;31023;44.994;1.796;2023-05-07T02:54:58;14.60;99.90
45283;DHT22;31023;44.994;1.796;2023-05-07T02:57:24;14.70;99.90
45283;DHT22;31023;44.994;1.796;2023-05-07T02:59:50;14.70;99.90
45283;DHT22;31023;44.994;1.796;2023-05-07T03:02:16;14.70;99.90
45283;DHT22;31023;44.994;1.796;2023-05-07T03:04:41;14.70;99.90
45283;DHT22;31023;44.994;1.796;2023-05-07T03:07:07;14.90;99.90
45283;DHT22;31023;44.994;1.796;2023-05-07T03:09:33;14.80;99.90
45283;DHT22;31023;44.994;1.796;2023-05-07T03:11:59;14.80;99.90
45283;DHT22;31023;44.994;1.796;2023-05-07T03:14:24;14.70;99.90
45283;DHT22;31023;44.994;1.796;2023-05-07T03:16:50;14.60;99.90
45283;DHT22;31023;44.994;1.796;2023-05-07T03:19:16;14.60;99.90
45283;DHT22;31023;44.994;1.796;2023-05-07T03:21:42;14.60;99.90
45283;DHT22;31023;44.994;1.796;2023-05-07T03:24:07;14.70;99.90
45283;DHT22;31023;44.994;1.796;2023-05-07T03:26:33;14.70;99.90
45283;DHT22;31023;44.994;1.796;2023-05-07T03:28:59;14.70;99.90
45283;DHT22;31023;44.994;1.796;2023-05-07T03:31:25;14.70;99.90
45283;DHT22;31023;44.994;1.796;2023-05-07T03:33:55;14.70;99.90
45283;DHT22;31023;44.994;1.796;2023-05-07T03:36:21;14.60;99.90
45283;DHT22;31023;44.994;1.796;2023-05-07T03:38:48;14.60;99.90
45283;DHT22;31023;44.994;1.796;2023-05-07T03:41:14;14.70;99.90
45283;DHT22;31023;44.994;1.796;2023-05-07T03:43:40;14.70;99.90
45283;DHT22;31023;44.994;1.796;2023-05-07T03:46:06;14.60;99.90
45283;DHT22;31023;44.994;1.796;2023-05-07T03:48:31;14.50;99.90
45283;DHT22;31023;44.994;1.796;2023-05-07T03:50:58;14.50;99.90
45283;DHT22;31023;44.994;1.796;2023-05-07T03:53:24;14.50;99.90
45283;DHT22;31023;44.994;1.796;2023-05-07T03:55:50;14.50;99.90
45283;DHT22;31023;44.994;1.796;2023-05-07T03:58:16;14.50;99.90
45283;DHT22;31023;44.994;1.796;2023-05-07T04:00:41;14.40;99.90
45283;DHT22;31023;44.994;1.796;2023-05-07T04:03:07;14.50;99.90
45283;DHT22;31023;44.994;1.796;2023-05-07T04:05:33;14.40;99.90
45283;DHT22;31023;44.994;1.796;2023-05-07T04:07:59;14.40;99.90
45283;DHT22;31023;44.994;1.796;2023-05-07T04:10:25;14.30;99.90
45283;DHT22;31023;44.994;1.796;2023-05-07T04:12:51;14.30;99.90
45283;DHT22;31023;44.994;1.796;2023-05-07T04:15:17;14.30;99.90
45283;DHT22;31023;44.994;1.796;2023-05-07T04:17:42;14.30;99.90
45283;DHT22;31023;44.994;1.796;2023-05-07T04:20:14;14.20;99.90
45283;DHT22;31023;44.994;1.796;2023-05-07T04:22:40;14.30;99.90
45283;DHT22;31023;44.994;1.796;2023-05-07T04:25:07;14.30;99.90
45283;DHT22;31023;44.994;1.796;2023-05-07T04:27:35;14.20;99.90
45283;DHT22;31023;44.994;1.796;2023-05-07T04:30:01;14.20;99.90
45283;DHT22;31023;44.994;1.796;2023-05-07T04:32:28;14.20;99.90
45283;DHT22;31023;44.994;1.796;2023-05-07T04:34:55;14.30;99.90
45283;DHT22;31023;44.994;1.796;2023-05-07T04:37:21;14.20;99.90
45283;DHT22;31023;44.994;1.796;2023-05-07T04:39:47;14.20;99.90
45283;DHT22;31023;44.994;1.796;2023-05-07T04:42:18;14.00;99.90
45283;DHT22;31023;44.994;1.796;2023-05-07T04:44:45;14.10;99.90
45283;DHT22;31023;44.994;1.796;2023-05-07T04:47:11;14.20;99.90
45283;DHT22;31023;44.994;1.796;2023-05-07T04:49:38;14.20;99.90
45283;DHT22;31023;44.994;1.796;2023-05-07T04:52:04;14.30;99.90
45283;DHT22;31023;44.994;1.796;2023-05-07T04:54:30;14.20;99.90
45283;DHT22;31023;44.994;1.796;2023-05-07T04:56:55;14.20;99.90
45283;DHT22;31023;44.994;1.796;2023-05-07T04:59:21;14.30;99.90
45283;DHT22;31023;44.994;1.796;2023-05-07T05:01:47;14.30;99.90
45283;DHT22;31023;44.994;1.796;2023-05-07T05:04:13;14.40;99.90
45283;DHT22;31023;44.994;1.796;2023-05-07T05:06:39;14.30;99.90
45283;DHT22;31023;44.994;1.796;2023-05-07T05:09:05;14.20;99.90
45283;DHT22;31023;44.994;1.796;2023-05-07T05:11:31;14.30;99.90
45283;DHT22;31023;44.994;1.796;2023-05-07T05:13:58;14.30;99.90
45283;DHT22;31023;44.994;1.796;2023-05-07T05:16:24;14.40;99.90
45283;DHT22;31023;44.994;1.796;2023-05-07T05:18:50;14.40;99.90
45283;DHT22;31023;44.994;1.796;2023-05-07T05:21:17;14.30;99.90
45283;DHT22;31023;44.994;1.796;2023-05-07T05:23:43;14.50;99.90
45283;DHT22;31023;44.994;1.796;2023-05-07T05:26:09;14.50;99.90
45283;DHT22;31023;44.994;1.796;2023-05-07T05:28:34;14.40;99.90
45283;DHT22;31023;44.994;1.796;2023-05-07T05:31:00;14.30;99.90
45283;DHT22;31023;44.994;1.796;2023-05-07T05:33:26;14.30;99.90
45283;DHT22;31023;44.994;1.796;2023-05-07T05:35:53;14.40;99.90
45283;DHT22;31023;44.994;1.796;2023-05-07T05:38:18;14.30;99.90
45283;DHT22;31023;44.994;1.796;2023-05-07T05:40:44;14.30;99.90
45283;DHT22;31023;44.994;1.796;2023-05-07T05:43:09;14.20;99.90
45283;DHT22;31023;44.994;1.796;2023-05-07T05:45:35;14.30;99.90
45283;DHT22;31023;44.994;1.796;2023-05-07T05:48:01;14.20;99.90
45283;DHT22;31023;44.994;1.796;2023-05-07T05:50:27;14.20;99.90
45283;DHT22;31023;44.994;1.796;2023-05-07T05:52:52;14.20;99.90
45283;DHT22;31023;44.994;1.796;2023-05-07T05:55:18;14.30;99.90
45283;DHT22;31023;44.994;1.796;2023-05-07T05:57:44;14.20;99.90
45283;DHT22;31023;44.994;1.796;2023-05-07T06:00:10;14.10;99.90
45283;DHT22;31023;44.994;1.796;2023-05-07T06:02:36;14.20;99.90
45283;DHT22;31023;44.994;1.796;2023-05-07T06:05:01;14.30;99.90
45283;DHT22;31023;44.994;1.796;2023-05-07T06:07:27;14.30;99.90
45283;DHT22;31023;44.994;1.796;2023-05-07T06:09:53;14.30;99.90
45283;DHT22;31023;44.994;1.796;2023-05-07T06:12:18;14.30;99.90
45283;DHT22;31023;44.994;1.796;2023-05-07T06:14:44;14.30;99.90
45283;DHT22;31023;44.994;1.796;2023-05-07T06:17:10;14.30;99.90
45283;DHT22;31023;44.994;1.796;2023-05-07T06:19:35;14.30;99.90
45283;DHT22;31023;44.994;1.796;2023-05-07T06:22:01;14.40;99.90
45283;DHT22;31023;44.994;1.796;2023-05-07T06:24:27;14.30;99.90
45283;DHT22;31023;44.994;1.796;2023-05-07T06:26:53;14.30;99.90
45283;DHT22;31023;44.994;1.796;2023-05-07T06:29:19;14.30;99.90
45283;DHT22;31023;44.994;1.796;2023-05-07T06:31:45;14.40;99.90
45283;DHT22;31023;44.994;1.796;2023-05-07T06:34:11;14.40;99.90
45283;DHT22;31023;44.994;1.796;2023-05-07T06:36:40;14.30;99.90
45283;DHT22;31023;44.994;1.796;2023-05-07T06:39:06;14.40;99.90
45283;DHT22;31023;44.994;1.796;2023-05-07T06:41:31;14.20;99.90
45283;DHT22;31023;44.994;1.796;2023-05-07T06:43:57;14.20;99.90
45283;DHT22;31023;44.994;1.796;2023-05-07T06:46:23;14.20;99.90
45283;DHT22;31023;44.994;1.796;2023-05-07T06:48:49;14.30;99.90
45283;DHT22;31023;44.994;1.796;2023-05-07T06:51:14;14.40;99.90
45283;DHT22;31023;44.994;1.796;2023-05-07T06:53:40;14.60;99.90
45283;DHT22;31023;44.994;1.796;2023-05-07T06:56:06;14.70;99.90
45283;DHT22;31023;44.994;1.796;2023-05-07T06:58:32;14.90;99.90
45283;DHT22;31023;44.994;1.796;2023-05-07T07:00:57;15.00;99.90
45283;DHT22;31023;44.994;1.796;2023-05-07T07:03:23;15.30;99.90
45283;DHT22;31023;44.994;1.796;2023-05-07T07:05:52;15.40;99.90
45283;DHT22;31023;44.994;1.796;2023-05-07T07:08:18;15.50;99.90
45283;DHT22;31023;44.994;1.796;2023-05-07T07:10:46;15.60;99.90
45283;DHT22;31023;44.994;1.796;2023-05-07T07:13:12;15.60;99.90
45283;DHT22;31023;44.994;1.796;2023-05-07T07:15:38;15.80;99.90
45283;DHT22;31023;44.994;1.796;2023-05-07T07:18:04;15.90;99.90
45283;DHT22;31023;44.994;1.796;2023-05-07T07:20:30;16.00;99.90
45283;DHT22;31023;44.994;1.796;2023-05-07T07:22:55;16.40;99.90
45283;DHT22;31023;44.994;1.796;2023-05-07T07:25:21;16.60;99.90
45283;DHT22;31023;44.994;1.796;2023-05-07T07:27:47;16.70;99.90
45283;DHT22;31023;44.994;1.796;2023-05-07T07:30:12;16.70;99.90
45283;DHT22;31023;44.994;1.796;2023-05-07T07:32:38;17.00;99.90
45283;DHT22;31023;44.994;1.796;2023-05-07T07:35:04;17.30;99.90
45283;DHT22;31023;44.994;1.796;2023-05-07T07:37:30;17.40;99.90
45283;DHT22;31023;44.994;1.796;2023-05-07T07:39:56;17.70;99.90
45283;DHT22;31023;44.994;1.796;2023-05-07T07:42:22;18.40;99.90
45283;DHT22;31023;44.994;1.796;2023-05-07T07:44:48;19.70;99.90
45283;DHT22;31023;44.994;1.796;2023-05-07T07:47:14;18.80;99.90
45283;DHT22;31023;44.994;1.796;2023-05-07T07:49:39;18.40;99.90
45283;DHT22;31023;44.994;1.796;2023-05-07T07:52:05;17.70;99.90
45283;DHT22;31023;44.994;1.796;2023-05-07T07:54:31;17.70;99.90
45283;DHT22;31023;44.994;1.796;2023-05-07T07:56:57;17.80;99.90
45283;DHT22;31023;44.994;1.796;2023-05-07T07:59:23;17.50;99.90
45283;DHT22;31023;44.994;1.796;2023-05-07T08:01:48;17.70;99.90
45283;DHT22;31023;44.994;1.796;2023-05-07T08:04:15;18.10;99.90
45283;DHT22;31023;44.994;1.796;2023-05-07T08:06:41;17.70;99.90
45283;DHT22;31023;44.994;1.796;2023-05-07T08:09:07;17.40;99.90
45283;DHT22;31023;44.994;1.796;2023-05-07T08:11:34;17.40;99.90
45283;DHT22;31023;44.994;1.796;2023-05-07T08:13:59;17.30;99.90
45283;DHT22;31023;44.994;1.796;2023-05-07T08:16:25;17.70;99.90
45283;DHT22;31023;44.994;1.796;2023-05-07T08:18:51;18.20;99.90
45283;DHT22;31023;44.994;1.796;2023-05-07T08:21:17;18.40;99.90
45283;DHT22;31023;44.994;1.796;2023-05-07T08:23:42;18.50;99.90
45283;DHT22;31023;44.994;1.796;2023-05-07T08:26:08;18.40;99.90
45283;DHT22;31023;44.994;1.796;2023-05-07T08:28:35;18.40;99.90
45283;DHT22;31023;44.994;1.796;2023-05-07T08:31:00;18.20;99.90
45283;DHT22;31023;44.994;1.796;2023-05-07T08:33:26;18.90;99.90
45283;DHT22;31023;44.994;1.796;2023-05-07T08:35:52;19.00;99.90
45283;DHT22;31023;44.994;1.796;2023-05-07T08:38:18;19.00;99.90
45283;DHT22;31023;44.994;1.796;2023-05-07T08:40:44;19.00;99.90
45283;DHT22;31023;44.994;1.796;2023-05-07T08:43:12;19.30;99.90
45283;DHT22;31023;44.994;1.796;2023-05-07T08:45:40;19.10;99.90
45283;DHT22;31023;44.994;1.796;2023-05-07T08:48:09;18.60;99.90
45283;DHT22;31023;44.994;1.796;2023-05-07T08:50:39;18.20;99.90
45283;DHT22;31023;44.994;1.796;2023-05-07T08:53:05;18.20;99.90
45283;DHT22;31023;44.994;1.796;2023-05-07T08:55:31;18.60;99.90
45283;DHT22;31023;44.994;1.796;2023-05-07T08:57:57;19.00;99.90
45283;DHT22;31023;44.994;1.796;2023-05-07T09:00:22;19.50;99.90
45283;DHT22;31023;44.994;1.796;2023-05-07T09:02:48;19.30;99.90
45283;DHT22;31023;44.994;1.796;2023-05-07T09:05:14;19.10;99.90
45283;DHT22;31023;44.994;1.796;2023-05-07T09:07:40;19.00;99.90
45283;DHT22;31023;44.994;1.796;2023-05-07T09:10:06;18.20;99.90
45283;DHT22;31023;44.994;1.796;2023-05-07T09:12:32;18.00;99.90
45283;DHT22;31023;44.994;1.796;2023-05-07T09:14:59;18.20;99.90
45283;DHT22;31023;44.994;1.796;2023-05-07T09:17:25;18.20;99.90
45283;DHT22;31023;44.994;1.796;2023-05-07T09:19:51;18.20;99.90
45283;DHT22;31023;44.994;1.796;2023-05-07T09:22:16;18.10;99.90
45283;DHT22;31023;44.994;1.796;2023-05-07T09:24:48;17.80;99.90
45283;DHT22;31023;44.994;1.796;2023-05-07T09:27:14;17.50;99.90
45283;DHT22;31023;44.994;1.796;2023-05-07T09:29:40;17.00;99.90
45283;DHT22;31023;44.994;1.796;2023-05-07T09:32:07;16.70;99.90
45283;DHT22;31023;44.994;1.796;2023-05-07T09:34:33;16.70;99.90
45283;DHT22;31023;44.994;1.796;2023-05-07T09:37:04;16.50;99.90
45283;DHT22;31023;44.994;1.796;2023-05-07T09:39:44;16.80;99.90
45283;DHT22;31023;44.994;1.796;2023-05-07T09:42:10;17.00;99.90
45283;DHT22;31023;44.994;1.796;2023-05-07T09:44:37;17.40;99.90
45283;DHT22;31023;44.994;1.796;2023-05-07T09:47:05;18.00;99.90
45283;DHT22;31023;44.994;1.796;2023-05-07T09:49:34;18.60;99.90
45283;DHT22;31023;44.994;1.796;2023-05-07T09:52:01;18.60;99.90
45283;DHT22;31023;44.994;1.796;2023-05-07T09:54:28;18.50;99.90
45283;DHT22;31023;44.994;1.796;2023-05-07T09:56:55;18.70;99.90
45283;DHT22;31023;44.994;1.796;2023-05-07T09:59:21;18.80;99.90
45283;DHT22;31023;44.994;1.796;2023-05-07T10:01:49;18.90;99.90
45283;DHT22;31023;44.994;1.796;2023-05-07T10:04:15;19.40;99.90
45283;DHT22;31023;44.994;1.796;2023-05-07T10:06:44;22.80;99.20
45283;DHT22;31023;44.994;1.796;2023-05-07T10:09:10;25.50;90.00
45283;DHT22;31023;44.994;1.796;2023-05-07T10:11:36;22.90;88.90
45283;DHT22;31023;44.994;1.796;2023-05-07T10:14:03;21.50;91.90
45283;DHT22;31023;44.994;1.796;2023-05-07T10:16:32;21.50;92.90
45283;DHT22;31023;44.994;1.796;2023-05-07T10:19:02;20.50;93.70
45283;DHT22;31023;44.994;1.796;2023-05-07T10:21:29;19.40;94.70
45283;DHT22;31023;44.994;1.796;2023-05-07T10:24:04;18.80;96.80
45283;DHT22;31023;44.994;1.796;2023-05-07T10:26:32;18.30;99.90
45283;DHT22;31023;44.994;1.796;2023-05-07T10:29:16;18.10;99.90
45283;DHT22;31023;44.994;1.796;2023-05-07T10:34:29;18.40;99.90
45283;DHT22;31023;44.994;1.796;2023-05-07T10:36:58;18.90;99.90
45283;DHT22;31023;44.994;1.796;2023-05-07T10:39:24;19.50;99.90
45283;DHT22;31023;44.994;1.796;2023-05-07T10:41:50;19.90;98.80
45283;DHT22;31023;44.994;1.796;2023-05-07T10:44:28;20.50;96.90
45283;DHT22;31023;44.994;1.796;2023-05-07T10:47:17;21.20;96.60
45283;DHT22;31023;44.994;1.796;2023-05-07T10:52:23;21.90;93.40
45283;DHT22;31023;44.994;1.796;2023-05-07T10:57:50;22.80;92.30
45283;DHT22;31023;44.994;1.796;2023-05-07T11:05:30;20.80;95.60
45283;DHT22;31023;44.994;1.796;2023-05-07T11:07:56;20.50;94.80
45283;DHT22;31023;44.994;1.796;2023-05-07T11:10:22;20.40;96.00
45283;DHT22;31023;44.994;1.796;2023-05-07T11:12:49;20.20;94.70
45283;DHT22;31023;44.994;1.796;2023-05-07T11:15:37;20.10;97.30
45283;DHT22;31023;44.994;1.796;2023-05-07T11:18:03;20.30;96.70
45283;DHT22;31023;44.994;1.796;2023-05-07T11:26:08;20.30;92.80
45283;DHT22;31023;44.994;1.796;2023-05-07T11:28:39;20.90;92.60
45283;DHT22;31023;44.994;1.796;2023-05-07T11:31:05;21.70;93.00
45283;DHT22;31023;44.994;1.796;2023-05-07T11:33:32;22.40;91.40
45283;DHT22;31023;44.994;1.796;2023-05-07T11:35:57;22.20;90.50
45283;DHT22;31023;44.994;1.796;2023-05-07T11:38:25;21.50;90.70
45283;DHT22;31023;44.994;1.796;2023-05-07T11:43:16;21.50;87.00
45283;DHT22;31023;44.994;1.796;2023-05-07T11:45:42;22.20;91.00
45283;DHT22;31023;44.994;1.796;2023-05-07T11:48:08;22.50;85.30
45283;DHT22;31023;44.994;1.796;2023-05-07T11:50:34;22.80;86.30
45283;DHT22;31023;44.994;1.796;2023-05-07T11:53:00;23.40;90.20
45283;DHT22;31023;44.994;1.796;2023-05-07T11:55:25;22.40;88.90
45283;DHT22;31023;44.994;1.796;2023-05-07T11:57:51;21.50;91.50
45283;DHT22;31023;44.994;1.796;2023-05-07T12:00:17;21.60;93.30
45283;DHT22;31023;44.994;1.796;2023-05-07T12:02:45;21.20;92.80
45283;DHT22;31023;44.994;1.796;2023-05-07T12:05:11;21.30;95.10
45283;DHT22;31023;44.994;1.796;2023-05-07T12:07:37;21.30;95.50
45283;DHT22;31023;44.994;1.796;2023-05-07T12:10:06;21.30;92.90
45283;DHT22;31023;44.994;1.796;2023-05-07T12:12:41;21.10;92.30
45283;DHT22;31023;44.994;1.796;2023-05-07T12:15:10;21.00;92.50
45283;DHT22;31023;44.994;1.796;2023-05-07T12:17:36;20.50;90.80
45283;DHT22;31023;44.994;1.796;2023-05-07T12:20:02;20.70;91.40
45283;DHT22;31023;44.994;1.796;2023-05-07T12:22:28;21.10;89.10
45283;DHT22;31023;44.994;1.796;2023-05-07T12:24:57;21.60;90.00
45283;DHT22;31023;44.994;1.796;2023-05-07T12:27:23;21.60;84.70
45283;DHT22;31023;44.994;1.796;2023-05-07T12:29:50;20.60;90.50
45283;DHT22;31023;44.994;1.796;2023-05-07T12:32:22;19.90;91.60
45283;DHT22;31023;44.994;1.796;2023-05-07T12:34:51;19.50;92.30
45283;DHT22;31023;44.994;1.796;2023-05-07T12:37:23;18.60;95.50
45283;DHT22;31023;44.994;1.796;2023-05-07T12:39:49;16.40;99.90
45283;DHT22;31023;44.994;1.796;2023-05-07T12:42:16;15.60;99.90
45283;DHT22;31023;44.994;1.796;2023-05-07T12:44:45;15.30;99.90
45283;DHT22;31023;44.994;1.796;2023-05-07T12:47:11;15.40;99.90
45283;DHT22;31023;44.994;1.796;2023-05-07T12:49:38;15.50;99.90
45283;DHT22;31023;44.994;1.796;2023-05-07T12:52:04;15.60;99.90
45283;DHT22;31023;44.994;1.796;2023-05-07T12:54:35;16.10;99.90
45283;DHT22;31023;44.994;1.796;2023-05-07T12:57:07;16.10;99.90
45283;DHT22;31023;44.994;1.796;2023-05-07T12:59:42;16.00;99.90
45283;DHT22;31023;44.994;1.796;2023-05-07T13:02:08;15.70;99.90
45283;DHT22;31023;44.994;1.796;2023-05-07T13:04:34;16.00;99.90
45283;DHT22;31023;44.994;1.796;2023-05-07T13:07:01;15.70;99.90
45283;DHT22;31023;44.994;1.796;2023-05-07T13:09:27;15.90;99.90
45283;DHT22;31023;44.994;1.796;2023-05-07T13:11:54;15.70;99.90
45283;DHT22;31023;44.994;1.796;2023-05-07T13:14:20;16.00;99.90
45283;DHT22;31023;44.994;1.796;2023-05-07T13:16:47;15.90;99.90
45283;DHT22;31023;44.994;1.796;2023-05-07T13:19:13;16.00;99.90
45283;DHT22;31023;44.994;1.796;2023-05-07T13:21:38;15.90;99.90
45283;DHT22;31023;44.994;1.796;2023-05-07T13:24:04;15.60;99.90
45283;DHT22;31023;44.994;1.796;2023-05-07T13:26:31;15.60;99.90
45283;DHT22;31023;44.994;1.796;2023-05-07T13:28:56;15.80;99.90
45283;DHT22;31023;44.994;1.796;2023-05-07T13:31:23;15.90;99.90
45283;DHT22;31023;44.994;1.796;2023-05-07T13:33:48;16.30;99.90
45283;DHT22;31023;44.994;1.796;2023-05-07T13:36:15;16.50;99.90
45283;DHT22;31023;44.994;1.796;2023-05-07T13:38:40;16.60;99.90
45283;DHT22;31023;44.994;1.796;2023-05-07T13:41:06;16.70;99.90
45283;DHT22;31023;44.994;1.796;2023-05-07T13:43:31;16.90;99.90
45283;DHT22;31023;44.994;1.796;2023-05-07T13:45:59;17.00;99.90
45283;DHT22;31023;44.994;1.796;2023-05-07T13:48:25;17.20;99.90
45283;DHT22;31023;44.994;1.796;2023-05-07T13:50:50;17.40;99.90
45283;DHT22;31023;44.994;1.796;2023-05-07T13:53:17;17.70;99.90
45283;DHT22;31023;44.994;1.796;2023-05-07T13:55:44;18.00;99.90
45283;DHT22;31023;44.994;1.796;2023-05-07T13:58:10;18.50;99.90
45283;DHT22;31023;44.994;1.796;2023-05-07T14:00:36;18.90;99.90
45283;DHT22;31023;44.994;1.796;2023-05-07T14:03:02;19.30;99.90
45283;DHT22;31023;44.994;1.796;2023-05-07T14:05:28;19.80;99.90
45283;DHT22;31023;44.994;1.796;2023-05-07T14:07:54;19.80;99.90
45283;DHT22;31023;44.994;1.796;2023-05-07T14:10:22;19.90;99.90
45283;DHT22;31023;44.994;1.796;2023-05-07T14:12:47;19.60;99.90
45283;DHT22;31023;44.994;1.796;2023-05-07T14:15:13;19.40;99.90
45283;DHT22;31023;44.994;1.796;2023-05-07T14:17:39;19.00;99.90
45283;DHT22;31023;44.994;1.796;2023-05-07T14:20:05;18.50;99.90
45283;DHT22;31023;44.994;1.796;2023-05-07T14:22:32;18.30;99.90
45283;DHT22;31023;44.994;1.796;2023-05-07T14:24:58;18.20;99.90
45283;DHT22;31023;44.994;1.796;2023-05-07T14:27:23;18.50;99.90
45283;DHT22;31023;44.994;1.796;2023-05-07T14:29:49;18.60;99.90
45283;DHT22;31023;44.994;1.796;2023-05-07T14:32:17;18.40;99.90
45283;DHT22;31023;44.994;1.796;2023-05-07T14:34:43;18.20;99.90
45283;DHT22;31023;44.994;1.796;2023-05-07T14:37:09;18.00;99.90
45283;DHT22;31023;44.994;1.796;2023-05-07T14:39:35;17.70;99.90
45283;DHT22;31023;44.994;1.796;2023-05-07T14:42:00;17.80;99.90
45283;DHT22;31023;44.994;1.796;2023-05-07T14:44:26;18.00;99.90
45283;DHT22;31023;44.994;1.796;2023-05-07T14:46:52;18.00;99.90
45283;DHT22;31023;44.994;1.796;2023-05-07T14:49:17;17.80;99.90
45283;DHT22;31023;44.994;1.796;2023-05-07T14:51:44;17.80;99.90
45283;DHT22;31023;44.994;1.796;2023-05-07T14:54:11;17.80;99.90
45283;DHT22;31023;44.994;1.796;2023-05-07T14:56:37;17.60;99.90
45283;DHT22;31023;44.994;1.796;2023-05-07T14:59:03;17.60;99.90
45283;DHT22;31023;44.994;1.796;2023-05-07T15:01:29;17.50;99.90
45283;DHT22;31023;44.994;1.796;2023-05-07T15:03:54;17.40;99.90
45283;DHT22;31023;44.994;1.796;2023-05-07T15:06:21;17.30;99.90
45283;DHT22;31023;44.994;1.796;2023-05-07T15:08:46;17.10;99.90
45283;DHT22;31023;44.994;1.796;2023-05-07T15:11:14;17.00;99.90
45283;DHT22;31023;44.994;1.796;2023-05-07T15:13:41;17.20;99.90
45283;DHT22;31023;44.994;1.796;2023-05-07T15:16:07;17.00;99.90
45283;DHT22;31023;44.994;1.796;2023-05-07T15:18:32;17.30;99.90
45283;DHT22;31023;44.994;1.796;2023-05-07T15:20:58;17.50;99.90
45283;DHT22;31023;44.994;1.796;2023-05-07T15:23:24;17.80;99.90
45283;DHT22;31023;44.994;1.796;2023-05-07T15:25:49;17.90;99.90
45283;DHT22;31023;44.994;1.796;2023-05-07T15:28:15;17.90;99.90
45283;DHT22;31023;44.994;1.796;2023-05-07T15:30:41;17.90;99.90
45283;DHT22;31023;44.994;1.796;2023-05-07T15:33:06;18.00;99.90
45283;DHT22;31023;44.994;1.796;2023-05-07T15:35:32;18.10;99.90
45283;DHT22;31023;44.994;1.796;2023-05-07T15:37:58;18.10;99.90
45283;DHT22;31023;44.994;1.796;2023-05-07T15:40:24;18.10;99.90
45283;DHT22;31023;44.994;1.796;2023-05-07T15:42:51;18.10;99.90
45283;DHT22;31023;44.994;1.796;2023-05-07T15:45:19;18.00;99.90
45283;DHT22;31023;44.994;1.796;2023-05-07T15:47:45;18.00;99.90